首页
METAR-TAF:

METAR-TAF

机场 :

Skiathos, 希腊

纬度: 39-11N, 经度: 023-30E, 海拔: 15米

当前天气观测

该预报发布于26分钟前的10:50 UTC
风速5节,风向
温度 14°C
湿度 77%
气压 1006 hPa
能见度10公里或以上
少量云层高于800英尺
少量云层高于2000英尺, 塔状积云.
散云层高于3000英尺

METAR: LGSK 111050Z 35005KT 9999 FEW008 FEW020TCU SCT030 14/10 Q1006

时间: 13:16 (11:16 UTC)

预报

该预报发布于3小时和16分钟前的08:00 UTC
预报有效从11日的 09点(UTC)到 11日的 18点(UTC)
风速15节,风向西
能見度: 8000
少量云层高于1500英尺
多云层高于2500英尺
几率 40% :
短暂存在
从 11日的 09点(UTC)到 11日的 18点(UTC)
能見度: 4000
散云层高于1000英尺
多云层高于2500英尺
几率 30% :
短暂存在
从 11日的 09点(UTC)到 11日的 18点(UTC)
能見度: 4000
散云层高于1000英尺
少量云层高于1800英尺, 积雨云.
多云层高于2000英尺
多云层高于6000英尺
雷暴, 雨
成为
从 11日的 13点(UTC)到 11日的 15点(UTC)
风速17节,风向西北,有时为27节阵风

TAF: LGSK 110800Z 1109/1118 28015KT 8000 FEW015 BKN025 PROB40 TEMPO 1109/1118 4000 RA SCT010 BKN025 PROB30 TEMPO 1109/1118 4000 TSRA SCT010 FEW018CB BKN020 BKN060 BECMG 1113/1115 32017G27KT

超过4000个机场的气象观测和天气预报(METAR&TAF报告)。

可查询的气象台以黄色和红色小点在地图上表示。

将鼠标移到小点上方,可查看气象台名称。

然后点击查看天气观测和预报。

如需切换地图:点击带黑十字的绿色按钮放大地图;点击带横线的绿色按钮缩小地图;或者点击绿色箭头查看邻近地区的地图。


METAR-TAF: